createdAt,value
2022-11-29T00:00:12.356Z,99590.63
2022-11-29T00:01:17.922Z,99588.88
2022-11-29T00:02:19.412Z,99584.47
2022-11-29T00:03:20.924Z,99587.16
2022-11-29T00:04:22.337Z,99585.22
2022-11-29T00:05:23.694Z,99583.56
2022-11-29T00:06:26.362Z,99591.72
2022-11-29T00:07:27.771Z,99588.50
2022-11-29T00:08:29.273Z,99584.44
2022-11-29T00:09:30.637Z,99589.66
2022-11-29T00:10:32.024Z,99585.34
2022-11-29T00:11:34.604Z,99593.13
2022-11-29T00:12:35.981Z,99589.66
2022-11-29T00:13:37.780Z,99592.34
2022-11-29T00:14:39.278Z,99587.22
2022-11-29T00:15:40.665Z,99588.09
2022-11-29T00:16:42.533Z,99589.91
2022-11-29T00:17:43.917Z,99588.09
2022-11-29T00:18:45.286Z,99587.97
2022-11-29T00:19:46.622Z,99587.03
2022-11-29T00:20:47.979Z,99585.19
2022-11-29T00:21:49.349Z,99590.28
2022-11-29T00:22:50.682Z,99588.44
2022-11-29T00:23:52.038Z,99583.22
2022-11-29T00:24:53.404Z,99580.56
2022-11-29T00:25:54.763Z,99589.28
2022-11-29T00:26:56.111Z,99585.69
2022-11-29T00:27:57.481Z,99589.13
2022-11-29T00:28:58.911Z,99585.47
2022-11-29T00:30:00.297Z,99585.03
2022-11-29T00:31:11.969Z,99588.44
2022-11-29T00:32:13.404Z,99584.91
2022-11-29T00:33:14.794Z,99587.44
2022-11-29T00:34:16.164Z,99592.53
2022-11-29T00:35:17.608Z,99591.94
2022-11-29T00:36:19.461Z,99590.25
2022-11-29T00:37:20.797Z,99592.78
2022-11-29T00:38:22.178Z,99591.16
2022-11-29T00:39:23.571Z,99586.63
2022-11-29T00:40:24.939Z,99589.22
2022-11-29T00:41:26.427Z,99585.69
2022-11-29T00:42:27.845Z,99586.63
2022-11-29T00:43:29.222Z,99584.94
2022-11-29T00:44:30.574Z,99589.34
2022-11-29T00:45:32.037Z,99587.31
2022-11-29T00:46:33.753Z,99584.25
2022-11-29T00:47:35.128Z,99587.03
2022-11-29T00:48:37.040Z,99587.50
2022-11-29T00:49:38.437Z,99588.53
2022-11-29T00:50:39.829Z,99590.50
2022-11-29T00:51:41.230Z,99586.22
2022-11-29T00:52:42.599Z,99587.88
2022-11-29T00:53:43.960Z,99591.16
2022-11-29T00:54:45.728Z,99590.22
2022-11-29T00:55:47.730Z,99587.63
2022-11-29T00:56:49.096Z,99591.69
2022-11-29T00:57:50.492Z,99587.28
2022-11-29T00:58:51.915Z,99588.88
2022-11-29T00:59:53.285Z,99587.03
2022-11-29T01:00:55.019Z,99591.25
2022-11-29T01:01:56.513Z,99586.81
2022-11-29T01:02:57.887Z,99585.06
2022-11-29T01:04:00.225Z,99582.38
2022-11-29T01:05:01.579Z,99587.66
2022-11-29T01:06:04.509Z,99580.69
2022-11-29T01:07:05.869Z,99582.97
2022-11-29T01:08:07.254Z,99575.06
2022-11-29T01:09:08.646Z,99582.59
2022-11-29T01:10:10.109Z,99578.22
2022-11-29T01:11:13.457Z,99580.00
2022-11-29T01:12:14.849Z,99581.63
2022-11-29T01:13:16.225Z,99585.06
2022-11-29T01:14:17.557Z,99581.63
2022-11-29T01:15:18.960Z,99578.09
2022-11-29T01:16:20.512Z,99585.72
2022-11-29T01:17:21.917Z,99580.50
2022-11-29T01:18:23.555Z,99579.59
2022-11-29T01:19:24.937Z,99583.81
2022-11-29T01:20:26.321Z,99584.56
2022-11-29T01:21:27.929Z,99582.75
2022-11-29T01:22:29.343Z,99584.38
2022-11-29T01:23:30.824Z,99580.00
2022-11-29T01:24:32.258Z,99579.88
2022-11-29T01:25:33.638Z,99576.38
2022-11-29T01:26:35.005Z,99575.50
2022-11-29T01:27:36.401Z,99578.06
2022-11-29T01:28:38.102Z,99580.53
2022-11-29T01:29:39.464Z,99576.25
2022-11-29T01:30:40.879Z,99582.44
2022-11-29T01:31:42.469Z,99581.97
2022-11-29T01:32:43.844Z,99580.16
2022-11-29T01:33:45.278Z,99580.03
2022-11-29T01:34:46.891Z,99584.31
2022-11-29T01:35:51.404Z,99578.31
2022-11-29T01:36:52.860Z,99579.09
2022-11-29T01:37:54.201Z,99578.19
2022-11-29T01:38:55.623Z,99572.94
2022-11-29T01:39:56.986Z,99578.00
2022-11-29T01:41:06.317Z,99571.03
2022-11-29T01:42:10.044Z,99569.22
2022-11-29T01:43:20.566Z,99567.66
2022-11-29T01:44:21.893Z,99567.56
2022-11-29T01:45:26.000Z,99564.91
2022-11-29T01:46:29.029Z,99565.13
2022-11-29T01:47:30.595Z,99566.94
2022-11-29T01:48:32.706Z,99570.28
2022-11-29T01:49:36.031Z,99566.81
2022-11-29T01:50:38.555Z,99563.25
2022-11-29T01:51:42.096Z,99565.81
2022-11-29T01:52:44.067Z,99562.22
2022-11-29T01:53:45.678Z,99560.38
2022-11-29T01:54:48.336Z,99566.28
2022-11-29T01:55:52.855Z,99570.50
2022-11-29T01:56:54.437Z,99568.59
2022-11-29T01:57:55.856Z,99566.78
2022-11-29T01:58:57.345Z,99574.50
2022-11-29T02:00:02.523Z,99579.81
2022-11-29T02:01:14.413Z,99571.91
2022-11-29T02:02:18.357Z,99565.00
2022-11-29T02:03:19.780Z,99576.19
2022-11-29T02:04:21.184Z,99576.91
2022-11-29T02:05:23.228Z,99578.59
2022-11-29T02:06:24.823Z,99576.97
2022-11-29T02:07:26.271Z,99569.28
2022-11-29T02:08:31.564Z,99575.28
2022-11-29T02:09:32.943Z,99576.88
2022-11-29T02:10:37.479Z,99575.06
2022-11-29T02:11:38.845Z,99573.19
2022-11-29T02:12:54.711Z,99570.59
2022-11-29T02:13:56.063Z,99567.94
2022-11-29T02:15:03.872Z,99570.53
2022-11-29T02:16:12.731Z,99579.94
2022-11-29T02:17:29.806Z,99567.81
2022-11-29T02:18:43.296Z,99569.38
2022-11-29T02:19:59.738Z,99565.84
2022-11-29T02:21:01.057Z,99570.03
2022-11-29T02:22:05.241Z,99567.44
2022-11-29T02:23:25.265Z,99567.31
2022-11-29T02:24:41.495Z,99570.75
2022-11-29T02:26:01.680Z,99574.47
2022-11-29T02:27:21.436Z,99569.25
2022-11-29T02:28:38.065Z,99576.06
2022-11-29T02:29:42.216Z,99567.31
2022-11-29T02:30:55.222Z,99575.81
2022-11-29T02:32:15.249Z,99570.69
2022-11-29T02:33:31.395Z,99570.75
2022-11-29T02:34:40.881Z,99569.13
2022-11-29T02:35:49.698Z,99575.94
2022-11-29T02:37:11.644Z,99578.47
2022-11-29T02:38:28.533Z,99574.31
2022-11-29T02:39:40.736Z,99572.94
2022-11-29T02:41:00.289Z,99576.47
2022-11-29T02:42:16.671Z,99574.81
2022-11-29T02:43:36.749Z,99575.53
2022-11-29T02:44:57.032Z,99582.56
2022-11-29T02:46:07.704Z,99579.94
2022-11-29T02:47:12.122Z,99581.63
2022-11-29T02:48:23.574Z,99586.06
2022-11-29T02:49:33.302Z,99577.28
2022-11-29T02:50:55.134Z,99582.47
2022-11-29T02:52:13.056Z,99578.13
2022-11-29T02:53:20.357Z,99588.44
2022-11-29T02:54:28.316Z,99589.50
2022-11-29T02:55:55.237Z,99583.47
2022-11-29T02:57:15.561Z,99590.59
2022-11-29T02:58:25.129Z,99586.56
2022-11-29T02:59:32.356Z,99597.03
2022-11-29T03:00:35.465Z,99588.22
2022-11-29T03:01:55.482Z,99585.47
2022-11-29T03:03:03.188Z,99591.38
2022-11-29T03:04:10.238Z,99598.25
2022-11-29T03:05:14.347Z,99594.75
2022-11-29T03:06:26.016Z,99596.38
2022-11-29T03:07:37.696Z,99591.19
2022-11-29T03:08:54.081Z,99589.44
2022-11-29T03:10:14.280Z,99595.50
2022-11-29T03:11:18.668Z,99596.59
2022-11-29T03:12:31.031Z,99596.56
2022-11-29T03:13:38.597Z,99591.25
2022-11-29T03:14:58.539Z,99596.38
2022-11-29T03:16:08.671Z,99594.56
2022-11-29T03:17:13.029Z,99604.78
2022-11-29T03:18:37.553Z,99601.13
2022-11-29T03:19:55.345Z,99602.75
2022-11-29T03:21:14.995Z,99600.28
2022-11-29T03:22:39.639Z,99605.69
2022-11-29T03:23:47.004Z,99601.28
2022-11-29T03:25:07.021Z,99602.88
2022-11-29T03:26:14.437Z,99608.09
2022-11-29T03:27:26.906Z,99605.53
2022-11-29T03:28:28.249Z,99613.94
2022-11-29T03:29:33.246Z,99607.88
2022-11-29T03:30:37.454Z,99606.16
2022-11-29T03:31:42.894Z,99609.63
2022-11-29T03:32:50.481Z,99613.06
2022-11-29T03:33:51.813Z,99606.88
2022-11-29T03:34:57.606Z,99608.53
2022-11-29T03:36:04.401Z,99614.47
2022-11-29T03:37:17.198Z,99606.88
2022-11-29T03:38:33.878Z,99610.47
2022-11-29T03:39:44.558Z,99614.75
2022-11-29T03:40:57.431Z,99616.47
2022-11-29T03:42:02.134Z,99622.38
2022-11-29T03:43:09.017Z,99616.47
2022-11-29T03:44:15.673Z,99620.63
2022-11-29T03:45:23.125Z,99621.47
2022-11-29T03:46:31.902Z,99622.34
2022-11-29T03:47:55.633Z,99615.34
2022-11-29T03:49:02.034Z,99617.75
2022-11-29T03:50:06.850Z,99616.88
2022-11-29T03:51:13.653Z,99623.88
2022-11-29T03:52:47.529Z,99626.66
2022-11-29T03:53:55.901Z,99626.06
2022-11-29T03:55:03.465Z,99619.94
2022-11-29T03:56:22.280Z,99620.75
2022-11-29T03:57:30.933Z,99613.84
2022-11-29T03:58:40.580Z,99613.69
2022-11-29T03:59:51.092Z,99615.56
2022-11-29T04:01:11.034Z,99621.72
2022-11-29T04:02:31.031Z,99618.59
2022-11-29T04:03:46.013Z,99613.56
2022-11-29T04:04:47.592Z,99613.41
2022-11-29T04:06:10.585Z,99617.13
2022-11-29T04:07:30.455Z,99612.22
2022-11-29T04:08:31.823Z,99609.72
2022-11-29T04:09:42.501Z,99610.59
2022-11-29T04:10:56.385Z,99615.72
2022-11-29T04:11:57.742Z,99610.75
2022-11-29T04:13:17.745Z,99607.53
2022-11-29T04:14:39.404Z,99607.44
2022-11-29T04:16:04.043Z,99612.31
2022-11-29T04:17:18.376Z,99614.84
2022-11-29T04:18:31.977Z,99611.44
2022-11-29T04:19:45.751Z,99611.50
2022-11-29T04:20:48.547Z,99616.84
2022-11-29T04:21:49.988Z,99620.16
2022-11-29T04:23:03.309Z,99616.53
2022-11-29T04:24:36.286Z,99622.28
2022-11-29T04:25:43.626Z,99623.97
2022-11-29T04:26:51.228Z,99622.31
2022-11-29T04:28:10.580Z,99625.69
2022-11-29T04:29:41.290Z,99620.28
2022-11-29T04:30:51.926Z,99628.81
2022-11-29T04:31:59.461Z,99629.56
2022-11-29T04:33:22.643Z,99628.47
2022-11-29T04:34:29.865Z,99625.81
2022-11-29T04:35:52.614Z,99625.69
2022-11-29T04:36:56.689Z,99634.25
2022-11-29T04:37:58.036Z,99632.44
2022-11-29T04:39:08.157Z,99630.81
2022-11-29T04:40:18.467Z,99631.88
2022-11-29T04:41:19.849Z,99640.69
2022-11-29T04:42:21.210Z,99634.66
2022-11-29T04:43:39.416Z,99635.78
2022-11-29T04:44:40.712Z,99640.81
2022-11-29T04:45:42.074Z,99629.09
2022-11-29T04:47:01.961Z,99628.41
2022-11-29T04:48:32.831Z,99625.69
2022-11-29T04:49:49.375Z,99635.94
2022-11-29T04:50:59.752Z,99636.84
2022-11-29T04:52:17.775Z,99641.91
2022-11-29T04:53:22.203Z,99634.19
2022-11-29T04:54:39.367Z,99640.31
2022-11-29T04:55:49.255Z,99645.47
2022-11-29T04:57:10.831Z,99643.91
2022-11-29T04:58:15.208Z,99643.22
2022-11-29T04:59:16.559Z,99647.50
2022-11-29T05:00:20.255Z,99638.78
2022-11-29T05:01:40.205Z,99650.03
2022-11-29T05:02:55.384Z,99643.34
2022-11-29T05:04:10.058Z,99646.72
2022-11-29T05:05:21.560Z,99650.88
2022-11-29T05:06:22.920Z,99647.56
2022-11-29T05:07:36.393Z,99646.72
2022-11-29T05:08:37.741Z,99648.31
2022-11-29T05:09:57.780Z,99642.09
2022-11-29T05:11:02.229Z,99650.88
2022-11-29T05:12:10.861Z,99656.28
2022-11-29T05:13:29.161Z,99658.28
2022-11-29T05:14:35.994Z,99654.59
2022-11-29T05:15:55.956Z,99650.28
2022-11-29T05:17:07.307Z,99661.34
2022-11-29T05:18:14.525Z,99659.78
2022-11-29T05:19:27.916Z,99657.94
2022-11-29T05:20:35.207Z,99657.84
2022-11-29T05:21:39.542Z,99657.25
2022-11-29T05:22:56.165Z,99659.00
2022-11-29T05:24:06.459Z,99662.38
2022-11-29T05:25:20.933Z,99658.16
2022-11-29T05:26:35.630Z,99656.25
2022-11-29T05:27:36.973Z,99663.41
2022-11-29T05:28:48.620Z,99658.88
2022-11-29T05:29:57.410Z,99655.25
2022-11-29T05:31:22.126Z,99662.19
2022-11-29T05:32:23.574Z,99663.75
2022-11-29T05:33:27.642Z,99662.03
2022-11-29T05:34:55.378Z,99659.31
2022-11-29T05:36:06.765Z,99667.25
2022-11-29T05:37:08.096Z,99668.75
2022-11-29T05:38:21.655Z,99668.00
2022-11-29T05:39:41.691Z,99669.06
2022-11-29T05:41:01.652Z,99676.72
2022-11-29T05:42:06.100Z,99669.78
2022-11-29T05:43:07.463Z,99679.25
2022-11-29T05:44:27.404Z,99675.88
2022-11-29T05:45:32.414Z,99673.13
2022-11-29T05:46:37.695Z,99674.84
2022-11-29T05:47:45.189Z,99675.72
2022-11-29T05:48:50.886Z,99685.09
2022-11-29T05:49:59.866Z,99684.00
2022-11-29T05:51:19.738Z,99680.50
2022-11-29T05:52:43.987Z,99683.09
2022-11-29T05:53:55.646Z,99682.09
2022-11-29T05:55:06.048Z,99687.16
2022-11-29T05:56:25.596Z,99693.06
2022-11-29T05:57:32.725Z,99686.78
2022-11-29T05:58:50.019Z,99684.97
2022-11-29T05:59:51.638Z,99685.81
2022-11-29T06:01:11.749Z,99688.34
2022-11-29T06:02:19.249Z,99688.34
2022-11-29T06:03:43.667Z,99692.75
2022-11-29T06:04:56.809Z,99686.66
2022-11-29T06:06:05.559Z,99691.69
2022-11-29T06:07:12.360Z,99689.72
2022-11-29T06:08:20.324Z,99693.19
2022-11-29T06:09:26.168Z,99690.63
2022-11-29T06:10:38.457Z,99689.69
2022-11-29T06:11:45.873Z,99693.09
2022-11-29T06:13:03.820Z,99692.28
2022-11-29T06:14:25.332Z,99698.41
2022-11-29T06:15:35.703Z,99699.28
2022-11-29T06:16:47.751Z,99708.94
2022-11-29T06:17:51.831Z,99705.63
2022-11-29T06:19:23.963Z,99708.19
2022-11-29T06:20:31.121Z,99703.94
2022-11-29T06:21:32.450Z,99710.75
2022-11-29T06:22:46.174Z,99708.00
2022-11-29T06:23:47.496Z,99714.81
2022-11-29T06:24:56.205Z,99712.94
2022-11-29T06:26:03.547Z,99711.25
2022-11-29T06:27:20.359Z,99707.22
2022-11-29T06:28:40.244Z,99708.19
2022-11-29T06:30:13.708Z,99709.94
2022-11-29T06:31:25.325Z,99708.22
2022-11-29T06:32:44.803Z,99717.72
2022-11-29T06:33:46.157Z,99709.84
2022-11-29T06:35:07.064Z,99703.53
2022-11-29T06:36:16.414Z,99711.78
2022-11-29T06:37:27.314Z,99709.97
2022-11-29T06:38:29.742Z,99708.09
2022-11-29T06:39:31.359Z,99713.09
2022-11-29T06:40:32.809Z,99703.66
2022-11-29T06:41:34.361Z,99711.16
2022-11-29T06:42:35.737Z,99709.28
2022-11-29T06:43:37.157Z,99707.59
2022-11-29T06:44:38.743Z,99713.44
2022-11-29T06:45:44.732Z,99717.53
2022-11-29T06:46:47.696Z,99711.50
2022-11-29T06:47:52.622Z,99704.78
2022-11-29T06:49:08.785Z,99710.56
2022-11-29T06:50:13.141Z,99718.06
2022-11-29T06:51:20.919Z,99718.91
2022-11-29T06:52:40.598Z,99718.69
2022-11-29T06:53:45.066Z,99721.91
2022-11-29T06:54:46.782Z,99713.13
2022-11-29T06:55:54.448Z,99724.38
2022-11-29T06:57:01.977Z,99724.09
2022-11-29T06:58:03.318Z,99729.94
2022-11-29T06:59:23.585Z,99722.94
2022-11-29T07:00:25.013Z,99728.91
2022-11-29T07:01:45.039Z,99730.53
2022-11-29T07:03:15.832Z,99736.56
2022-11-29T07:04:36.720Z,99730.44
2022-11-29T07:05:39.624Z,99733.00
2022-11-29T07:06:41.123Z,99729.44
2022-11-29T07:07:42.720Z,99735.44
2022-11-29T07:08:45.304Z,99733.91
2022-11-29T07:09:47.561Z,99737.31
2022-11-29T07:10:50.603Z,99728.72
2022-11-29T07:11:52.082Z,99734.63
2022-11-29T07:12:53.602Z,99737.28
2022-11-29T07:13:55.102Z,99729.63
2022-11-29T07:14:57.567Z,99733.13
2022-11-29T07:16:06.652Z,99733.03
2022-11-29T07:17:15.710Z,99729.69
2022-11-29T07:18:27.232Z,99737.53
2022-11-29T07:19:47.471Z,99732.41
2022-11-29T07:20:51.901Z,99733.91
2022-11-29T07:22:05.142Z,99732.84
2022-11-29T07:23:12.638Z,99736.22
2022-11-29T07:24:19.857Z,99730.97
2022-11-29T07:25:21.201Z,99739.63
2022-11-29T07:26:29.223Z,99736.94
2022-11-29T07:27:33.688Z,99731.84
2022-11-29T07:28:42.746Z,99742.41
2022-11-29T07:29:55.042Z,99744.63
2022-11-29T07:31:05.117Z,99732.66
2022-11-29T07:32:25.775Z,99746.69
2022-11-29T07:33:34.975Z,99747.53
2022-11-29T07:34:45.460Z,99743.88
2022-11-29T07:36:05.657Z,99748.31
2022-11-29T07:37:13.821Z,99742.97
2022-11-29T07:38:24.349Z,99737.06
2022-11-29T07:39:34.148Z,99749.06
2022-11-29T07:40:38.613Z,99748.34
2022-11-29T07:41:58.439Z,99747.53
2022-11-29T07:43:18.445Z,99745.75
2022-11-29T07:44:26.372Z,99752.72
2022-11-29T07:45:29.082Z,99747.44
2022-11-29T07:46:30.516Z,99749.03
2022-11-29T07:47:35.731Z,99754.09
2022-11-29T07:48:37.668Z,99750.44
2022-11-29T07:49:39.126Z,99752.25
2022-11-29T07:50:40.682Z,99756.72
2022-11-29T07:51:42.085Z,99754.09
2022-11-29T07:52:43.463Z,99753.88
2022-11-29T07:53:45.035Z,99757.31
2022-11-29T07:54:46.691Z,99759.19
2022-11-29T07:55:48.509Z,99761.88
2022-11-29T07:56:49.906Z,99755.81
2022-11-29T07:57:51.612Z,99760.19
2022-11-29T07:58:53.026Z,99757.59
2022-11-29T07:59:54.505Z,99755.00
2022-11-29T08:00:56.002Z,99756.81
2022-11-29T08:01:57.452Z,99755.94
2022-11-29T08:02:58.836Z,99756.72
2022-11-29T08:04:00.208Z,99762.50
2022-11-29T08:05:01.581Z,99756.59
2022-11-29T08:06:03.263Z,99756.81
2022-11-29T08:07:04.616Z,99757.81
2022-11-29T08:08:06.292Z,99754.31
2022-11-29T08:09:07.724Z,99753.22
2022-11-29T08:10:10.781Z,99751.81
2022-11-29T08:11:12.509Z,99752.78
2022-11-29T08:12:13.860Z,99754.66
2022-11-29T08:13:15.253Z,99752.91
2022-11-29T08:14:16.670Z,99746.03
2022-11-29T08:15:21.339Z,99742.78
2022-11-29T08:16:22.751Z,99746.22
2022-11-29T08:17:24.219Z,99749.66
2022-11-29T08:18:25.613Z,99748.81
2022-11-29T08:19:27.010Z,99752.13
2022-11-29T08:20:28.368Z,99749.53
2022-11-29T08:21:29.782Z,99749.47
2022-11-29T08:22:31.156Z,99751.88
2022-11-29T08:23:32.557Z,99749.22
2022-11-29T08:24:33.947Z,99741.25
2022-11-29T08:25:35.320Z,99743.75
2022-11-29T08:26:36.860Z,99747.97
2022-11-29T08:27:38.301Z,99746.09
2022-11-29T08:28:39.669Z,99741.69
2022-11-29T08:29:41.057Z,99744.09
2022-11-29T08:30:42.401Z,99747.50
2022-11-29T08:31:44.177Z,99740.53
2022-11-29T08:32:51.119Z,99749.00
2022-11-29T08:33:52.831Z,99748.03
2022-11-29T08:34:54.296Z,99747.97
2022-11-29T08:35:55.969Z,99750.38
2022-11-29T08:36:57.388Z,99751.06
2022-11-29T08:37:58.764Z,99746.75
2022-11-29T08:39:07.510Z,99754.44
2022-11-29T08:40:10.858Z,99747.56
2022-11-29T08:41:13.625Z,99747.50
2022-11-29T08:42:15.032Z,99748.13
2022-11-29T08:43:16.412Z,99752.50
2022-11-29T08:44:17.950Z,99754.31
2022-11-29T08:45:19.378Z,99751.66
2022-11-29T08:46:20.835Z,99752.44
2022-11-29T08:47:22.242Z,99752.34
2022-11-29T08:48:23.627Z,99747.88
2022-11-29T08:49:25.029Z,99759.09
2022-11-29T08:50:26.562Z,99752.94
2022-11-29T08:51:27.926Z,99755.34
2022-11-29T08:52:33.945Z,99755.34
2022-11-29T08:53:35.341Z,99760.38
2022-11-29T08:54:36.705Z,99765.38
2022-11-29T08:55:39.497Z,99762.56
2022-11-29T08:58:04.464Z,99762.38
2022-11-29T08:59:05.848Z,99767.50
2022-11-29T09:00:07.697Z,99762.94
2022-11-29T09:01:13.781Z,99759.03
2022-11-29T09:02:15.216Z,99769.91
2022-11-29T09:03:16.616Z,99774.25
2022-11-29T09:04:17.947Z,99778.03
2022-11-29T09:05:19.309Z,99767.72
2022-11-29T09:06:20.774Z,99770.13
2022-11-29T09:07:22.167Z,99760.75
2022-11-29T09:08:23.606Z,99760.69
2022-11-29T09:09:24.962Z,99763.16
2022-11-29T09:10:26.342Z,99762.16
2022-11-29T09:11:28.619Z,99761.72
2022-11-29T09:12:30.272Z,99763.00
2022-11-29T09:13:31.620Z,99758.06
2022-11-29T09:14:33.046Z,99758.94
2022-11-29T09:15:34.572Z,99763.13
2022-11-29T09:16:37.093Z,99759.03
2022-11-29T09:17:38.481Z,99756.00
2022-11-29T09:18:48.504Z,99750.09
2022-11-29T09:19:52.669Z,99758.59
2022-11-29T09:20:54.040Z,99763.81
2022-11-29T09:21:55.449Z,99759.16
2022-11-29T09:22:58.324Z,99755.91
2022-11-29T09:24:01.734Z,99750.59
2022-11-29T09:25:03.180Z,99752.25
2022-11-29T09:26:05.081Z,99750.22
2022-11-29T09:27:06.449Z,99754.22
2022-11-29T09:28:07.817Z,99753.47
2022-11-29T09:29:10.232Z,99755.81
2022-11-29T09:30:11.852Z,99754.91
2022-11-29T09:31:14.319Z,99756.94
2022-11-29T09:32:15.764Z,99760.13
2022-11-29T09:33:17.136Z,99757.13
2022-11-29T09:34:18.555Z,99758.25
2022-11-29T09:35:19.981Z,99759.09
2022-11-29T09:36:26.592Z,99758.16
2022-11-29T09:37:29.704Z,99751.63
2022-11-29T09:38:31.070Z,99754.78
2022-11-29T09:39:32.454Z,99753.00
2022-11-29T09:40:38.573Z,99749.78
2022-11-29T09:42:04.699Z,99753.75
2022-11-29T09:43:06.071Z,99751.59
2022-11-29T09:44:13.227Z,99751.44
2022-11-29T09:45:17.537Z,99746.44
2022-11-29T09:46:22.056Z,99745.59
2022-11-29T09:47:23.438Z,99747.59
2022-11-29T09:48:30.358Z,99742.38
2022-11-29T09:49:50.485Z,99745.25
2022-11-29T09:51:07.467Z,99742.00
2022-11-29T09:52:19.765Z,99744.94
2022-11-29T09:53:24.157Z,99753.38
2022-11-29T09:54:37.869Z,99744.47
2022-11-29T09:55:45.972Z,99749.28
2022-11-29T09:56:49.870Z,99751.38
2022-11-29T09:57:53.224Z,99747.84
2022-11-29T09:58:59.391Z,99750.78
2022-11-29T10:00:13.921Z,99743.03
2022-11-29T10:01:50.751Z,99748.16
2022-11-29T10:02:58.444Z,99749.28
2022-11-29T10:04:05.307Z,99744.13
2022-11-29T10:05:10.407Z,99750.44
2022-11-29T10:06:17.556Z,99746.25
2022-11-29T10:07:26.324Z,99753.13
2022-11-29T10:08:33.083Z,99742.88
2022-11-29T10:09:38.908Z,99750.63
2022-11-29T10:10:42.900Z,99752.56
2022-11-29T10:11:55.395Z,99745.91
2022-11-29T10:13:01.801Z,99752.97
2022-11-29T10:14:10.245Z,99743.03
2022-11-29T10:15:14.208Z,99744.72
2022-11-29T10:16:36.508Z,99751.44
2022-11-29T10:17:44.170Z,99742.53
2022-11-29T10:18:45.507Z,99747.81
2022-11-29T10:19:50.683Z,99750.59
2022-11-29T10:20:54.472Z,99749.56
2022-11-29T10:22:01.836Z,99748.75
2022-11-29T10:23:12.293Z,99743.53
2022-11-29T10:24:14.971Z,99746.97
2022-11-29T10:25:22.822Z,99744.28
2022-11-29T10:26:24.211Z,99745.38
2022-11-29T10:27:25.576Z,99746.91
2022-11-29T10:28:28.685Z,99739.06
2022-11-29T10:29:30.065Z,99741.69
2022-11-29T10:30:33.739Z,99745.97
2022-11-29T10:31:36.837Z,99741.50
2022-11-29T10:32:38.661Z,99744.03
2022-11-29T10:33:40.961Z,99747.66
2022-11-29T10:34:42.703Z,99743.13
2022-11-29T10:35:44.916Z,99730.59
2022-11-29T10:36:47.972Z,99731.28
2022-11-29T10:38:22.331Z,99739.66
2022-11-29T10:39:14.712Z,99743.38
2022-11-29T10:40:19.105Z,99737.31
2022-11-29T10:41:22.262Z,99739.66
2022-11-29T10:42:24.899Z,99735.22
2022-11-29T10:43:26.432Z,99733.47
2022-11-29T10:44:28.532Z,99737.66
2022-11-29T10:45:42.541Z,99734.63
2022-11-29T10:46:43.921Z,99739.91
2022-11-29T10:47:46.472Z,99734.03
2022-11-29T10:48:47.979Z,99737.50
2022-11-29T10:49:49.350Z,99737.56
2022-11-29T10:50:51.700Z,99732.97
2022-11-29T10:51:53.073Z,99735.47
2022-11-29T10:53:00.646Z,99743.78
2022-11-29T10:54:25.081Z,99741.09
2022-11-29T10:55:27.656Z,99742.47
2022-11-29T10:56:30.886Z,99744.72
2022-11-29T10:57:32.313Z,99747.56
2022-11-29T10:58:34.380Z,99739.97
2022-11-29T10:59:35.729Z,99741.94
2022-11-29T11:00:45.935Z,99743.19
2022-11-29T11:01:47.533Z,99741.63
2022-11-29T11:02:48.970Z,99743.72
2022-11-29T11:03:53.158Z,99743.03
2022-11-29T11:04:54.840Z,99746.31
2022-11-29T11:05:58.341Z,99738.03
2022-11-29T11:07:00.644Z,99740.66
2022-11-29T11:08:02.062Z,99742.09
2022-11-29T11:09:20.722Z,99741.63
2022-11-29T11:10:25.736Z,99738.66
2022-11-29T11:11:28.806Z,99738.47
2022-11-29T11:12:31.603Z,99741.91
2022-11-29T11:13:33.440Z,99744.44
2022-11-29T11:14:36.614Z,99740.88
2022-11-29T11:15:38.118Z,99737.25
2022-11-29T11:16:39.584Z,99745.38
2022-11-29T11:17:54.173Z,99748.53
2022-11-29T11:18:55.605Z,99740.16
2022-11-29T11:20:04.682Z,99754.41
2022-11-29T11:21:09.036Z,99743.88
2022-11-29T11:22:19.534Z,99747.44
2022-11-29T11:23:23.704Z,99742.88
2022-11-29T11:24:27.739Z,99742.56
2022-11-29T11:25:37.167Z,99744.88
2022-11-29T11:26:42.521Z,99737.91
2022-11-29T11:27:43.939Z,99736.09
2022-11-29T11:28:51.027Z,99744.25
2022-11-29T11:29:52.787Z,99743.50
2022-11-29T11:30:54.160Z,99747.63
2022-11-29T11:31:56.835Z,99754.41
2022-11-29T11:33:16.532Z,99753.13
2022-11-29T11:34:24.227Z,99756.75
2022-11-29T11:35:25.622Z,99745.75
2022-11-29T11:36:27.249Z,99743.66
2022-11-29T11:37:30.093Z,99750.97
2022-11-29T11:38:31.780Z,99752.72
2022-11-29T11:39:33.116Z,99753.66
2022-11-29T11:40:34.541Z,99745.81
2022-11-29T11:41:38.156Z,99751.63
2022-11-29T11:42:39.867Z,99747.16
2022-11-29T11:43:41.386Z,99747.59
2022-11-29T11:44:50.147Z,99746.94
2022-11-29T11:45:53.329Z,99745.47
2022-11-29T11:46:55.135Z,99755.63
2022-11-29T11:47:58.184Z,99747.44
2022-11-29T11:48:59.584Z,99746.13
2022-11-29T11:50:00.936Z,99746.31
2022-11-29T11:51:02.355Z,99753.13
2022-11-29T11:52:06.260Z,99744.16
2022-11-29T11:53:18.031Z,99745.84
2022-11-29T11:54:20.247Z,99746.66
2022-11-29T11:55:26.933Z,99751.34
2022-11-29T11:56:33.377Z,99754.03
2022-11-29T11:57:34.737Z,99751.41
2022-11-29T11:58:38.940Z,99758.44
2022-11-29T11:59:40.476Z,99763.06
2022-11-29T12:02:23.720Z,99754.56
2022-11-29T12:03:25.168Z,99757.25
2022-11-29T12:04:26.483Z,99763.59
2022-11-29T12:05:27.919Z,99763.28
2022-11-29T12:06:41.280Z,99761.78
2022-11-29T12:08:08.547Z,99764.38
2022-11-29T12:09:28.940Z,99761.63
2022-11-29T12:10:31.082Z,99764.84
2022-11-29T12:11:37.682Z,99763.69
2022-11-29T12:12:41.126Z,99753.50
2022-11-29T12:13:47.710Z,99756.97
2022-11-29T12:15:01.266Z,99757.09
2022-11-29T12:16:07.625Z,99766.06
2022-11-29T12:17:27.800Z,99761.94
2022-11-29T12:18:48.725Z,99763.03
2022-11-29T12:20:08.836Z,99762.41
2022-11-29T12:21:14.774Z,99763.56
2022-11-29T12:22:19.613Z,99760.22
2022-11-29T12:23:39.136Z,99759.03
2022-11-29T12:24:44.255Z,99762.53
2022-11-29T12:25:57.835Z,99762.91
2022-11-29T12:27:02.909Z,99752.53
2022-11-29T12:28:08.677Z,99759.72
2022-11-29T12:29:12.923Z,99758.69
2022-11-29T12:30:14.726Z,99762.41
2022-11-29T12:31:19.135Z,99755.41
2022-11-29T12:32:30.400Z,99759.34
2022-11-29T12:33:31.755Z,99759.28
2022-11-29T12:34:48.752Z,99754.22
2022-11-29T12:35:53.361Z,99756.00
2022-11-29T12:37:00.750Z,99754.31
2022-11-29T12:38:14.905Z,99749.09
2022-11-29T12:39:16.261Z,99753.41
2022-11-29T12:40:26.426Z,99754.16
2022-11-29T12:41:27.784Z,99753.22
2022-11-29T12:42:32.145Z,99758.78
2022-11-29T12:43:51.971Z,99751.03
2022-11-29T12:44:58.677Z,99756.25
2022-11-29T12:46:23.432Z,99759.72
2022-11-29T12:47:40.196Z,99760.63
2022-11-29T12:49:10.776Z,99762.16
2022-11-29T12:50:21.545Z,99761.22
2022-11-29T12:51:33.537Z,99757.94
2022-11-29T12:52:51.206Z,99762.91
2022-11-29T12:53:58.569Z,99768.19
2022-11-29T12:55:07.918Z,99771.66
2022-11-29T12:56:12.329Z,99769.97
2022-11-29T12:57:32.523Z,99764.06
2022-11-29T12:58:52.357Z,99771.03
2022-11-29T12:59:53.698Z,99776.88
2022-11-29T13:01:10.695Z,99768.88
2022-11-29T13:02:29.456Z,99770.38
2022-11-29T13:03:38.279Z,99768.53
2022-11-29T13:04:45.709Z,99772.16
2022-11-29T13:05:54.397Z,99773.06
2022-11-29T13:07:01.889Z,99775.59
2022-11-29T13:08:22.630Z,99779.22
2022-11-29T13:09:27.090Z,99774.25
2022-11-29T13:10:47.238Z,99775.88